Time;durP1;ratioP1;P1;durP2;ratioP2;P2;SDS_P1;SDS_P2;PMS_P1;PMS_P2;Temp;Humidity;BMP_temperature;BMP_pressure;BME280_temperature;BME280_humidity;BME280_pressure;Samples;Min_cycle;Max_cycle;Signal;HPM_P1;HPM_P2
2022/11/10 00:00:29;;;;;;;3.53;2.90;;;;;;;;;;5012805;28;20497;-46
2022/11/10 00:02:59;;;;;;;3.20;2.90;;;;;;;;;;5016691;28;20137;-46
2022/11/10 00:05:24;;;;;;;3.75;3.05;;;;;;;;;;5014162;28;20040;-49
2022/11/10 00:07:50;;;;;;;3.95;3.38;;;;;;;;;;5009103;28;20029;-47
2022/11/10 00:10:15;;;;;;;4.47;3.40;;;;;;;;;;5022093;28;20057;-45
2022/11/10 00:12:41;;;;;;;4.13;3.60;;;;;;;;;;5019202;28;20116;-48
2022/11/10 00:17:52;;;;;;;7.03;3.00;;;;;;;;;;5015161;28;20184;-45
2022/11/10 00:20:18;;;;;;;3.80;3.33;;;;;;;;;;5019277;28;20057;-45
2022/11/10 00:22:43;;;;;;;5.07;3.22;;;;;;;;;;5018638;28;20054;-46
2022/11/10 00:25:09;;;;;;;5.13;3.67;;;;;;;;;;5019597;28;20037;-45
2022/11/10 00:27:34;;;;;;;6.50;3.03;;;;;;;;;;5017168;28;20033;-46
2022/11/10 00:30:00;;;;;;;3.05;2.70;;;;;;;;;;5018308;28;20529;-45
2022/11/10 00:32:25;;;;;;;7.22;3.17;;;;;;;;;;5019193;28;20029;-46
2022/11/10 00:34:51;;;;;;;4.32;3.17;;;;;;;;;;5013444;28;20032;-47
2022/11/10 00:37:17;;;;;;;5.30;2.60;;;;;;;;;;5011671;28;20393;-46
2022/11/10 00:39:42;;;;;;;5.93;2.72;;;;;;;;;;5016088;28;20046;-46
2022/11/10 00:42:08;;;;;;;2.60;2.40;;;;;;;;;;5019464;28;20033;-45
2022/11/10 00:44:33;;;;;;;3.88;3.10;;;;;;;;;;5020539;28;20172;-45
2022/11/10 00:46:59;;;;;;;6.07;3.13;;;;;;;;;;5017921;28;20030;-45
2022/11/10 00:49:25;;;;;;;9.35;3.60;;;;;;;;;;5012306;28;20056;-45
2022/11/10 00:51:50;;;;;;;5.18;3.35;;;;;;;;;;5012596;28;20481;-47
2022/11/10 00:54:16;;;;;;;3.70;3.30;;;;;;;;;;5014280;28;20041;-44
2022/11/10 00:56:41;;;;;;;5.47;3.47;;;;;;;;;;5018137;28;20107;-45
2022/11/10 00:59:06;;;;;;;6.88;3.45;;;;;;;;;;5018359;28;20038;-47
2022/11/10 01:01:32;;;;;;;6.25;3.72;;;;;;;;;;5017596;28;20021;-45
2022/11/10 01:03:57;;;;;;;6.57;4.18;;;;;;;;;;5017438;28;20133;-46
2022/11/10 01:06:23;;;;;;;7.07;3.40;;;;;;;;;;5013960;28;20030;-45
2022/11/10 01:08:48;;;;;;;4.85;3.35;;;;;;;;;;5016454;28;20045;-45
2022/11/10 01:11:24;;;;;;;5.10;3.45;;;;;;;;;;5015305;28;20026;-45
2022/11/10 01:13:51;;;;;;;5.20;3.30;;;;;;;;;;5015049;28;20037;-46
2022/11/10 01:16:26;;;;;;;3.97;2.80;;;;;;;;;;5011201;28;20025;-45
2022/11/10 01:18:54;;;;;;;4.10;2.83;;;;;;;;;;5014176;28;20585;-46
2022/11/10 01:21:20;;;;;;;9.32;2.97;;;;;;;;;;5015715;28;20639;-45
2022/11/10 01:23:46;;;;;;;2.22;2.03;;;;;;;;;;5013584;28;20038;-45
2022/11/10 01:26:12;;;;;;;4.60;2.58;;;;;;;;;;5019869;28;20030;-48
2022/11/10 01:28:37;;;;;;;2.03;1.77;;;;;;;;;;5016240;28;20045;-48
2022/11/10 01:31:06;;;;;;;2.75;1.98;;;;;;;;;;5016205;28;20025;-46
2022/11/10 01:33:32;;;;;;;4.63;2.28;;;;;;;;;;5015043;28;20135;-47
2022/11/10 01:35:58;;;;;;;2.20;2.00;;;;;;;;;;5016506;28;20022;-45
2022/11/10 01:38:30;;;;;;;3.20;2.45;;;;;;;;;;5010866;28;22340;-46
2022/11/10 01:40:56;;;;;;;1.73;1.63;;;;;;;;;;5017511;28;20032;-44
2022/11/10 01:43:22;;;;;;;2.08;1.80;;;;;;;;;;5018332;28;20041;-46
2022/11/10 01:46:09;;;;;;;6.53;2.30;;;;;;;;;;5018109;28;20470;-46
2022/11/10 01:48:59;;;;;;;5.72;2.50;;;;;;;;;;5014769;28;20123;-46
2022/11/10 01:51:24;;;;;;;5.53;2.05;;;;;;;;;;5008848;28;20577;-46
2022/11/10 01:53:56;;;;;;;2.28;2.00;;;;;;;;;;5015549;28;20149;-46
2022/11/10 01:56:23;;;;;;;3.47;2.67;;;;;;;;;;5019175;28;20030;-46
2022/11/10 01:58:59;;;;;;;3.58;2.70;;;;;;;;;;5010335;28;20046;-47
2022/11/10 02:01:25;;;;;;;4.53;2.90;;;;;;;;;;5011649;28;20034;-47
2022/11/10 02:04:03;;;;;;;4.10;3.22;;;;;;;;;;5017108;28;20460;-45
2022/11/10 02:06:34;;;;;;;4.13;2.92;;;;;;;;;;5012302;28;20037;-46
2022/11/10 02:08:59;;;;;;;7.10;3.05;;;;;;;;;;5013388;28;20053;-46
2022/11/10 02:11:27;;;;;;;3.42;2.70;;;;;;;;;;5016144;28;20060;-46
2022/11/10 02:13:52;;;;;;;3.08;2.75;;;;;;;;;;5015599;28;20108;-46
2022/11/10 02:16:18;;;;;;;4.07;2.58;;;;;;;;;;5012473;28;20029;-45
2022/11/10 02:18:43;;;;;;;2.55;2.35;;;;;;;;;;5014305;28;20037;-45
2022/11/10 02:21:09;;;;;;;2.85;2.20;;;;;;;;;;5011566;28;20141;-46
2022/11/10 02:23:35;;;;;;;2.10;1.92;;;;;;;;;;5013270;28;20125;-45
2022/11/10 02:26:05;;;;;;;4.65;2.30;;;;;;;;;;5018295;28;20397;-45
2022/11/10 02:28:36;;;;;;;2.95;2.20;;;;;;;;;;5012002;28;20041;-45
2022/11/10 02:31:02;;;;;;;2.50;2.30;;;;;;;;;;5014635;28;20378;-45
2022/11/10 02:33:28;;;;;;;2.40;1.98;;;;;;;;;;5011397;28;20418;-46
2022/11/10 02:35:53;;;;;;;2.47;2.20;;;;;;;;;;5016857;28;20014;-45
2022/11/10 02:38:18;;;;;;;2.40;2.20;;;;;;;;;;5011981;28;20048;-46
2022/11/10 02:40:44;;;;;;;2.95;2.65;;;;;;;;;;5017251;28;20021;-45
2022/11/10 02:43:12;;;;;;;2.42;2.15;;;;;;;;;;5018874;28;20064;-46
2022/11/10 02:45:47;;;;;;;2.47;2.20;;;;;;;;;;5020841;28;20477;-46
2022/11/10 02:48:13;;;;;;;3.45;2.22;;;;;;;;;;5016437;28;20052;-48
2022/11/10 02:50:39;;;;;;;2.20;2.00;;;;;;;;;;5015311;28;20478;-46
2022/11/10 02:53:05;;;;;;;4.30;2.50;;;;;;;;;;5009707;28;20049;-45
2022/11/10 02:55:31;;;;;;;4.82;2.20;;;;;;;;;;5012927;28;20172;-45
2022/11/10 02:57:57;;;;;;;4.35;2.05;;;;;;;;;;5016515;28;20114;-45
2022/11/10 03:00:23;;;;;;;3.75;2.50;;;;;;;;;;5016704;28;20026;-45
2022/11/10 03:02:48;;;;;;;3.60;2.45;;;;;;;;;;5013792;28;20053;-45
2022/11/10 03:05:14;;;;;;;2.58;2.38;;;;;;;;;;5013758;28;20037;-45
2022/11/10 03:07:39;;;;;;;2.40;2.20;;;;;;;;;;5013013;28;20036;-45
2022/11/10 03:10:06;;;;;;;3.08;2.22;;;;;;;;;;5018017;28;20033;-45
2022/11/10 03:12:31;;;;;;;2.67;2.42;;;;;;;;;;5016492;28;20474;-45
2022/11/10 03:14:56;;;;;;;2.53;2.35;;;;;;;;;;5014028;28;20076;-46
2022/11/10 03:17:22;;;;;;;2.60;2.40;;;;;;;;;;5016295;28;20080;-45
2022/11/10 03:19:48;;;;;;;2.70;2.50;;;;;;;;;;5015494;28;20041;-45
2022/11/10 03:22:13;;;;;;;2.65;2.35;;;;;;;;;;5016533;28;20488;-46
2022/11/10 03:24:38;;;;;;;3.33;3.03;;;;;;;;;;5015892;28;20049;-46
2022/11/10 03:27:04;;;;;;;4.85;2.60;;;;;;;;;;5018141;28;20044;-46
2022/11/10 03:29:29;;;;;;;4.03;2.53;;;;;;;;;;5013455;28;20029;-45
2022/11/10 03:31:55;;;;;;;3.80;2.90;;;;;;;;;;5010233;28;20022;-45
2022/11/10 03:34:21;;;;;;;3.28;2.97;;;;;;;;;;5011273;28;20406;-45
2022/11/10 03:36:46;;;;;;;4.65;2.90;;;;;;;;;;5012477;28;20034;-45
2022/11/10 03:39:11;;;;;;;2.90;2.70;;;;;;;;;;5016303;28;20402;-45
2022/11/10 03:41:37;;;;;;;3.70;3.25;;;;;;;;;;5014897;28;20033;-45
2022/11/10 03:44:02;;;;;;;2.80;2.60;;;;;;;;;;5023010;28;20037;-46
2022/11/10 03:46:28;;;;;;;3.97;2.65;;;;;;;;;;5016982;28;20057;-45
2022/11/10 03:48:53;;;;;;;3.28;2.90;;;;;;;;;;5011184;28;20117;-45
2022/11/10 03:51:19;;;;;;;3.00;2.75;;;;;;;;;;5014028;28;20068;-45
2022/11/10 03:53:44;;;;;;;3.42;2.80;;;;;;;;;;5014098;28;20046;-45
2022/11/10 03:56:10;;;;;;;5.32;2.83;;;;;;;;;;5019571;28;21000;-46
2022/11/10 03:58:36;;;;;;;3.42;2.45;;;;;;;;;;5018855;28;20041;-45
2022/11/10 04:01:01;;;;;;;3.10;2.55;;;;;;;;;;5019440;28;20202;-46
2022/11/10 04:03:27;;;;;;;2.78;2.50;;;;;;;;;;5012581;28;20026;-46
2022/11/10 04:16:48;;;;;;;2.50;2.30;;;;;;;;;;5020643;28;20069;-45
2022/11/10 04:19:13;;;;;;;3.47;2.70;;;;;;;;;;5015059;28;20037;-46
2022/11/10 04:21:39;;;;;;;2.60;2.33;;;;;;;;;;5016358;28;20038;-45
2022/11/10 04:24:04;;;;;;;2.88;2.67;;;;;;;;;;5022047;28;20046;-46
2022/11/10 04:26:31;;;;;;;3.13;2.70;;;;;;;;;;5014368;28;20099;-45
2022/11/10 04:29:02;;;;;;;5.15;2.90;;;;;;;;;;5016490;28;20407;-45
2022/11/10 04:31:29;;;;;;;3.75;3.00;;;;;;;;;;5018589;28;20034;-45
2022/11/10 04:33:56;;;;;;;3.00;2.80;;;;;;;;;;5022817;28;20037;-45
2022/11/10 04:36:28;;;;;;;3.22;2.90;;;;;;;;;;5019322;28;20076;-47
2022/11/10 04:38:57;;;;;;;5.43;3.00;;;;;;;;;;5020303;28;20037;-45
2022/11/10 04:41:23;;;;;;;3.10;2.80;;;;;;;;;;5017336;28;20036;-47
2022/11/10 04:43:49;;;;;;;2.85;2.63;;;;;;;;;;5020072;28;20045;-45
2022/11/10 04:46:35;;;;;;;3.63;2.60;;;;;;;;;;5019743;28;20022;-47
2022/11/10 04:49:03;;;;;;;3.70;2.72;;;;;;;;;;5018814;28;20038;-45
2022/11/10 04:51:37;;;;;;;2.75;2.50;;;;;;;;;;5018076;28;20133;-45
2022/11/10 04:54:03;;;;;;;4.40;2.90;;;;;;;;;;5012326;28;20130;-45
2022/11/10 04:56:29;;;;;;;5.75;3.00;;;;;;;;;;5016784;28;20034;-45
2022/11/10 04:58:55;;;;;;;2.90;2.58;;;;;;;;;;5016328;28;20042;-46
2022/11/10 05:01:23;;;;;;;5.88;2.92;;;;;;;;;;5010367;28;20029;-47
2022/11/10 05:03:49;;;;;;;3.95;2.92;;;;;;;;;;5013278;28;20056;-46
2022/11/10 05:06:15;;;;;;;3.03;2.30;;;;;;;;;;5019392;28;20501;-45
2022/11/10 05:08:41;;;;;;;2.83;2.63;;;;;;;;;;5018047;28;20034;-46
2022/11/10 05:11:07;;;;;;;5.45;2.40;;;;;;;;;;5019291;28;20026;-46
2022/11/10 05:13:32;;;;;;;2.70;2.50;;;;;;;;;;5014030;28;20080;-46
2022/11/10 05:15:58;;;;;;;2.80;2.47;;;;;;;;;;5021659;28;20084;-47
2022/11/10 05:18:24;;;;;;;2.70;2.50;;;;;;;;;;5016364;28;20037;-47
2022/11/10 05:20:49;;;;;;;2.78;2.45;;;;;;;;;;5015193;28;20117;-45
2022/11/10 05:25:59;;;;;;;2.42;2.20;;;;;;;;;;5007136;28;20044;-45
2022/11/10 05:28:24;;;;;;;2.78;2.58;;;;;;;;;;5016840;28;20045;-45
2022/11/10 05:30:50;;;;;;;6.68;2.70;;;;;;;;;;5015278;28;20017;-45
2022/11/10 05:33:15;;;;;;;2.83;2.58;;;;;;;;;;5011607;28;20451;-45
2022/11/10 05:35:41;;;;;;;3.40;2.33;;;;;;;;;;5013395;28;20100;-46
2022/11/10 05:38:06;;;;;;;5.35;2.60;;;;;;;;;;5006543;28;20061;-45
2022/11/10 05:40:32;;;;;;;3.13;2.50;;;;;;;;;;5017630;28;20060;-45
2022/11/10 05:42:58;;;;;;;3.17;2.78;;;;;;;;;;5013143;28;20034;-45
2022/11/10 05:45:25;;;;;;;3.25;2.40;;;;;;;;;;5018802;28;20542;-46
2022/11/10 05:47:51;;;;;;;3.03;2.80;;;;;;;;;;5010364;28;20413;-47
2022/11/10 05:50:17;;;;;;;2.95;2.75;;;;;;;;;;5015638;28;20029;-46
2022/11/10 05:52:48;;;;;;;4.63;2.53;;;;;;;;;;5016364;28;20033;-46
2022/11/10 05:55:14;;;;;;;5.57;2.50;;;;;;;;;;5017587;28;20113;-46
2022/11/10 05:57:44;;;;;;;3.72;2.70;;;;;;;;;;5018589;28;20079;-45
2022/11/10 06:00:11;;;;;;;3.60;2.65;;;;;;;;;;5015890;28;20029;-45
2022/11/10 06:02:36;;;;;;;3.22;2.30;;;;;;;;;;5018541;28;20398;-45
2022/11/10 06:05:02;;;;;;;3.40;2.67;;;;;;;;;;5009153;28;20091;-46
2022/11/10 06:07:28;;;;;;;3.13;2.80;;;;;;;;;;5012693;28;20523;-46
2022/11/10 06:09:53;;;;;;;3.97;2.80;;;;;;;;;;5006659;28;20026;-46
2022/11/10 06:12:18;;;;;;;4.03;2.90;;;;;;;;;;5007372;28;20026;-45
2022/11/10 06:14:44;;;;;;;3.50;3.20;;;;;;;;;;5006326;28;20366;-45
2022/11/10 06:17:09;;;;;;;5.90;2.90;;;;;;;;;;5008391;28;20061;-45
2022/11/10 06:19:34;;;;;;;4.07;2.90;;;;;;;;;;5008435;28;20080;-45
2022/11/10 06:22:00;;;;;;;3.30;3.00;;;;;;;;;;5014692;28;20585;-46
2022/11/10 06:24:25;;;;;;;3.72;3.30;;;;;;;;;;5007580;28;20112;-45
2022/11/10 06:26:50;;;;;;;5.40;3.35;;;;;;;;;;5003919;28;21136;-45
2022/11/10 06:29:16;;;;;;;6.20;2.88;;;;;;;;;;5003695;28;20046;-45
2022/11/10 06:31:41;;;;;;;6.38;3.00;;;;;;;;;;5004881;28;20042;-45
2022/11/10 06:34:07;;;;;;;5.78;3.00;;;;;;;;;;5003019;28;20038;-45
2022/11/10 06:36:32;;;;;;;2.97;2.65;;;;;;;;;;5008899;28;20041;-45
2022/11/10 06:38:58;;;;;;;3.60;3.03;;;;;;;;;;5010326;28;20069;-45
2022/11/10 06:41:23;;;;;;;3.20;2.90;;;;;;;;;;5010845;28;20029;-46
2022/11/10 06:43:49;;;;;;;6.45;2.58;;;;;;;;;;5002094;28;20045;-45
2022/11/10 06:46:14;;;;;;;9.07;2.83;;;;;;;;;;5001299;28;20034;-45
2022/11/10 06:48:39;;;;;;;3.63;2.60;;;;;;;;;;5007641;28;20053;-47
2022/11/10 06:51:05;;;;;;;3.28;2.97;;;;;;;;;;5017931;28;20029;-46
2022/11/10 06:53:31;;;;;;;3.33;3.00;;;;;;;;;;5015729;28;20034;-45
2022/11/10 06:55:56;;;;;;;5.20;2.47;;;;;;;;;;5017019;28;20124;-46
2022/11/10 06:58:22;;;;;;;10.43;3.10;;;;;;;;;;5011342;28;20120;-45
2022/11/10 07:00:47;;;;;;;2.78;2.58;;;;;;;;;;5011378;28;20042;-46
2022/11/10 07:03:14;;;;;;;2.80;2.60;;;;;;;;;;5014842;28;20065;-46
2022/11/10 07:05:39;;;;;;;2.75;2.55;;;;;;;;;;5002706;28;20034;-46
2022/11/10 07:08:15;;;;;;;2.97;2.70;;;;;;;;;;5010622;28;20134;-45
2022/11/10 07:10:41;;;;;;;5.97;2.83;;;;;;;;;;5015105;28;20029;-45
2022/11/10 07:13:08;;;;;;;7.95;2.90;;;;;;;;;;5001501;28;20037;-46
2022/11/10 07:15:34;;;;;;;4.68;2.65;;;;;;;;;;5014320;28;20043;-45
2022/11/10 07:18:01;;;;;;;2.70;2.50;;;;;;;;;;5003329;28;20091;-45
2022/11/10 07:20:27;;;;;;;4.78;2.83;;;;;;;;;;5013173;28;20029;-45
2022/11/10 07:22:59;;;;;;;5.85;2.90;;;;;;;;;;5019073;28;20034;-45
2022/11/10 07:25:25;;;;;;;8.57;2.85;;;;;;;;;;5016245;28;20474;-46
2022/11/10 07:27:55;;;;;;;3.15;2.90;;;;;;;;;;5011324;28;20066;-46
2022/11/10 07:30:20;;;;;;;5.72;2.70;;;;;;;;;;5009548;28;20025;-45
2022/11/10 07:32:45;;;;;;;4.22;3.30;;;;;;;;;;5019261;28;20048;-45
2022/11/10 07:35:11;;;;;;;3.60;3.10;;;;;;;;;;5019827;28;20030;-46
2022/11/10 07:37:36;;;;;;;6.13;3.28;;;;;;;;;;5016599;28;20132;-48
2022/11/10 07:40:02;;;;;;;4.15;3.78;;;;;;;;;;5019267;28;20520;-45
2022/11/10 07:42:27;;;;;;;3.90;3.58;;;;;;;;;;5014898;28;20045;-46
2022/11/10 07:44:53;;;;;;;4.70;3.20;;;;;;;;;;5013347;28;20067;-46
2022/11/10 07:47:18;;;;;;;10.65;3.03;;;;;;;;;;5016735;28;20021;-46
2022/11/10 07:49:43;;;;;;;3.03;2.67;;;;;;;;;;5015191;28;20040;-46
2022/11/10 07:52:09;;;;;;;5.28;2.88;;;;;;;;;;5019341;28;20515;-45
2022/11/10 07:54:34;;;;;;;5.13;3.08;;;;;;;;;;5019140;28;20053;-45
2022/11/10 07:56:59;;;;;;;11.10;2.95;;;;;;;;;;5013805;28;20026;-45
2022/11/10 07:59:25;;;;;;;5.72;3.55;;;;;;;;;;5008788;28;20057;-45
2022/11/10 08:01:50;;;;;;;3.35;3.05;;;;;;;;;;5011386;28;20386;-46
2022/11/10 08:04:16;;;;;;;7.15;4.45;;;;;;;;;;5006661;28;20077;-47
2022/11/10 08:06:41;;;;;;;8.35;5.95;;;;;;;;;;5018766;28;20508;-45
2022/11/10 08:09:07;;;;;;;6.13;3.78;;;;;;;;;;5015030;28;20053;-46
2022/11/10 08:11:32;;;;;;;6.00;4.90;;;;;;;;;;5013997;28;20030;-45
2022/11/10 08:13:57;;;;;;;12.20;7.30;;;;;;;;;;5010330;28;20068;-46
2022/11/10 08:16:23;;;;;;;16.70;11.00;;;;;;;;;;5012864;28;20022;-46
2022/11/10 08:18:48;;;;;;;20.30;9.82;;;;;;;;;;5021238;28;20057;-45
2022/11/10 08:21:13;;;;;;;14.98;6.20;;;;;;;;;;5019054;28;20029;-45
2022/11/10 08:23:39;;;;;;;8.50;5.38;;;;;;;;;;5014301;28;20110;-45
2022/11/10 08:26:04;;;;;;;9.10;5.03;;;;;;;;;;5018704;28;20071;-46
2022/11/10 08:28:30;;;;;;;8.18;4.50;;;;;;;;;;5014010;28;20050;-46
2022/11/10 08:30:55;;;;;;;12.10;6.63;;;;;;;;;;5016533;28;20040;-46
2022/11/10 08:33:21;;;;;;;20.52;9.88;;;;;;;;;;5015531;28;20042;-45
2022/11/10 08:35:49;;;;;;;21.27;8.20;;;;;;;;;;5015960;28;20223;-46
2022/11/10 08:38:20;;;;;;;5.78;4.40;;;;;;;;;;5014901;28;20093;-45
2022/11/10 08:40:46;;;;;;;3.88;3.20;;;;;;;;;;5016675;28;20037;-45
2022/11/10 08:43:12;;;;;;;6.40;2.30;;;;;;;;;;5013758;28;20045;-45
2022/11/10 08:45:40;;;;;;;6.18;2.20;;;;;;;;;;5019715;28;20092;-46
2022/11/10 08:48:17;;;;;;;1.73;1.63;;;;;;;;;;5017987;28;20100;-45
2022/11/10 08:50:43;;;;;;;3.35;1.80;;;;;;;;;;5014349;28;20022;-45
2022/11/10 08:53:14;;;;;;;3.35;1.42;;;;;;;;;;5012468;28;20599;-46
2022/11/10 08:55:40;;;;;;;3.58;2.00;;;;;;;;;;5013094;28;20030;-46
2022/11/10 08:58:07;;;;;;;2.75;2.15;;;;;;;;;;5013729;28;20038;-47
2022/11/10 09:00:33;;;;;;;2.15;1.83;;;;;;;;;;5009098;28;20022;-47
2022/11/10 09:03:07;;;;;;;2.28;2.00;;;;;;;;;;5019689;28;20041;-46
2022/11/10 09:05:34;;;;;;;2.83;2.10;;;;;;;;;;5010731;28;20033;-45
2022/11/10 09:08:00;;;;;;;5.05;2.15;;;;;;;;;;5012118;28;20060;-45
2022/11/10 09:10:25;;;;;;;3.10;1.80;;;;;;;;;;5012389;28;20026;-45
2022/11/10 09:12:50;;;;;;;4.97;1.60;;;;;;;;;;5014701;28;20390;-47
2022/11/10 09:15:18;;;;;;;4.00;1.90;;;;;;;;;;5015587;28;20052;-45
2022/11/10 09:17:44;;;;;;;2.95;1.70;;;;;;;;;;5018308;28;20061;-44
2022/11/10 09:20:11;;;;;;;1.83;1.70;;;;;;;;;;5013643;28;20026;-45
2022/11/10 09:22:37;;;;;;;1.67;1.58;;;;;;;;;;5009161;28;20117;-45
2022/11/10 09:25:03;;;;;;;5.35;1.60;;;;;;;;;;5012120;28;20034;-47
2022/11/10 09:27:29;;;;;;;2.17;1.73;;;;;;;;;;5019383;28;20033;-44
2022/11/10 09:29:54;;;;;;;2.00;1.90;;;;;;;;;;5017715;28;20040;-45
2022/11/10 09:32:20;;;;;;;1.70;1.58;;;;;;;;;;5008182;28;20072;-45
2022/11/10 09:34:45;;;;;;;4.13;1.75;;;;;;;;;;5015071;28;20044;-45
2022/11/10 09:37:10;;;;;;;1.80;1.70;;;;;;;;;;5017285;28;20553;-45
2022/11/10 09:39:36;;;;;;;1.67;1.55;;;;;;;;;;5017119;28;20038;-45
2022/11/10 09:42:05;;;;;;;1.58;1.48;;;;;;;;;;5008978;28;20072;-45
2022/11/10 09:44:39;;;;;;;1.00;1.00;;;;;;;;;;5009317;28;20045;-46
2022/11/10 09:47:30;;;;;;;1.73;1.63;;;;;;;;;;5015524;28;20076;-46
2022/11/10 09:49:59;;;;;;;5.05;1.50;;;;;;;;;;5011169;28;20057;-46
2022/11/10 09:52:28;;;;;;;3.85;3.47;;;;;;;;;;5012143;28;20034;-45
2022/11/10 09:55:17;;;;;;;3.60;2.80;;;;;;;;;;5011013;28;20080;-45
2022/11/10 09:57:43;;;;;;;3.78;3.00;;;;;;;;;;5010109;28;20089;-46
2022/11/10 10:00:16;;;;;;;3.30;3.10;;;;;;;;;;5014220;28;20037;-46
2022/11/10 10:02:49;;;;;;;2.90;2.70;;;;;;;;;;5014603;28;20038;-46
2022/11/10 10:05:39;;;;;;;3.22;1.33;;;;;;;;;;5008713;28;20121;-45
2022/11/10 10:08:10;;;;;;;0.80;0.80;;;;;;;;;;5011269;28;20644;-45
2022/11/10 10:10:48;;;;;;;0.82;0.82;;;;;;;;;;5019608;28;20029;-45
2022/11/10 10:13:40;;;;;;;1.05;1.00;;;;;;;;;;5017183;28;20517;-44
2022/11/10 10:16:05;;;;;;;1.83;0.93;;;;;;;;;;5003645;28;20044;-45
2022/11/10 10:18:44;;;;;;;2.53;1.20;;;;;;;;;;5013689;28;20045;-45
2022/11/10 10:21:25;;;;;;;4.15;1.10;;;;;;;;;;5012282;28;20075;-45
2022/11/10 10:23:53;;;;;;;0.82;0.70;;;;;;;;;;5010392;28;20038;-45
2022/11/10 10:26:24;;;;;;;6.28;0.80;;;;;;;;;;5016973;28;20033;-45
2022/11/10 10:28:50;;;;;;;0.80;0.80;;;;;;;;;;5011914;28;20118;-45
2022/11/10 10:31:20;;;;;;;0.73;0.73;;;;;;;;;;5015595;28;20021;-45
2022/11/10 10:33:46;;;;;;;0.93;0.90;;;;;;;;;;5014165;28;20050;-45
2022/11/10 10:36:28;;;;;;;0.68;0.68;;;;;;;;;;5015343;28;20018;-45
2022/11/10 10:39:10;;;;;;;1.02;0.90;;;;;;;;;;5005709;28;20030;-45
2022/11/10 10:41:36;;;;;;;1.25;0.90;;;;;;;;;;5011572;28;20040;-45
2022/11/10 10:44:10;;;;;;;2.55;0.90;;;;;;;;;;5011488;28;20172;-44
2022/11/10 10:46:50;;;;;;;1.10;1.00;;;;;;;;;;5004406;28;20034;-46
2022/11/10 10:49:19;;;;;;;0.80;0.80;;;;;;;;;;5002490;28;20469;-44
2022/11/10 10:51:45;;;;;;;2.67;1.23;;;;;;;;;;5010533;28;20026;-45
2022/11/10 10:54:27;;;;;;;1.55;0.80;;;;;;;;;;5010385;28;20136;-46
2022/11/10 10:57:18;;;;;;;1.23;1.17;;;;;;;;;;5013729;28;20065;-45
2022/11/10 10:59:43;;;;;;;1.02;1.00;;;;;;;;;;5018673;28;20593;-46
2022/11/10 11:02:38;;;;;;;0.80;0.80;;;;;;;;;;5005454;28;20120;-46
2022/11/10 11:05:14;;;;;;;3.08;1.13;;;;;;;;;;5005381;28;20042;-45
2022/11/10 11:07:39;;;;;;;1.27;0.90;;;;;;;;;;5012193;28;20038;-45
2022/11/10 11:10:26;;;;;;;1.27;1.15;;;;;;;;;;5014962;28;20092;-46
2022/11/10 11:12:51;;;;;;;1.17;0.88;;;;;;;;;;5008086;28;20407;-45
2022/11/10 11:15:28;;;;;;;2.15;1.25;;;;;;;;;;5013563;28;20045;-44
2022/11/10 11:18:01;;;;;;;2.55;1.00;;;;;;;;;;5014773;28;20494;-44
2022/11/10 11:20:41;;;;;;;2.60;1.10;;;;;;;;;;5005730;28;20030;-44
2022/11/10 11:23:51;;;;;;;1.30;1.20;;;;;;;;;;5007987;28;20034;-44
2022/11/10 11:26:35;;;;;;;1.65;1.00;;;;;;;;;;5003848;28;20072;-45
2022/11/10 11:29:24;;;;;;;2.08;1.00;;;;;;;;;;5012498;28;20046;-45
2022/11/10 11:31:59;;;;;;;1.67;1.00;;;;;;;;;;5011587;28;20386;-45
2022/11/10 11:34:40;;;;;;;1.75;1.20;;;;;;;;;;5009382;28;20033;-45
2022/11/10 11:37:31;;;;;;;1.67;1.23;;;;;;;;;;5009371;28;20034;-45
2022/11/10 11:40:00;;;;;;;2.47;1.08;;;;;;;;;;5005268;28;20108;-45
2022/11/10 11:42:31;;;;;;;1.58;1.23;;;;;;;;;;5004553;28;20049;-46
2022/11/10 11:45:14;;;;;;;1.98;1.13;;;;;;;;;;5012351;28;20108;-45
2022/11/10 11:48:11;;;;;;;3.20;1.38;;;;;;;;;;5017657;28;20060;-45
2022/11/10 11:50:44;;;;;;;5.05;2.17;;;;;;;;;;5010192;28;20037;-47
2022/11/10 11:53:29;;;;;;;1.80;1.38;;;;;;;;;;5010940;28;20064;-45
2022/11/10 11:56:06;;;;;;;1.35;1.25;;;;;;;;;;5011103;28;20030;-46
2022/11/10 11:58:44;;;;;;;1.80;1.13;;;;;;;;;;4998798;28;20049;-46
2022/11/10 12:01:38;;;;;;;2.22;1.30;;;;;;;;;;5003329;28;20041;-47
2022/11/10 12:04:16;;;;;;;4.22;1.85;;;;;;;;;;5012340;28;20073;-45
2022/11/10 12:06:55;;;;;;;2.28;1.85;;;;;;;;;;5014371;28;20030;-46
2022/11/10 12:09:33;;;;;;;1.83;1.55;;;;;;;;;;5014095;28;20406;-47
2022/11/10 12:12:28;;;;;;;4.15;1.35;;;;;;;;;;5013128;28;20033;-46
2022/11/10 12:15:15;;;;;;;2.10;1.58;;;;;;;;;;5014017;28;20545;-46
2022/11/10 12:17:52;;;;;;;3.42;1.58;;;;;;;;;;5012513;28;20045;-45
2022/11/10 12:20:56;;;;;;;1.63;1.13;;;;;;;;;;5013027;28;20164;-45
2022/11/10 12:23:47;;;;;;;6.65;1.63;;;;;;;;;;4965974;28;20126;-48
2022/11/10 12:26:34;;;;;;;3.35;1.33;;;;;;;;;;4968955;28;20085;-45
2022/11/10 12:29:11;;;;;;;4.22;1.77;;;;;;;;;;4971052;28;20545;-45
2022/11/10 12:31:38;;;;;;;3.25;1.25;;;;;;;;;;4975543;28;20035;-45
2022/11/10 12:34:29;;;;;;;1.95;1.30;;;;;;;;;;4972569;28;20043;-45
2022/11/10 12:36:56;;;;;;;1.65;1.30;;;;;;;;;;4973466;28;20077;-47
2022/11/10 12:39:40;;;;;;;1.33;1.23;;;;;;;;;;4969812;28;20043;-45
2022/11/10 12:42:13;;;;;;;2.65;1.23;;;;;;;;;;4971259;28;20055;-46
2022/11/10 12:44:51;;;;;;;3.15;1.77;;;;;;;;;;4970129;28;20054;-47
2022/11/10 12:47:20;;;;;;;1.83;1.10;;;;;;;;;;4968599;28;20039;-45
2022/11/10 12:50:14;;;;;;;1.40;1.30;;;;;;;;;;4967397;28;20055;-47
2022/11/10 12:52:55;;;;;;;3.97;1.67;;;;;;;;;;4928322;29;20479;-46
2022/11/10 12:55:37;;;;;;;1.38;1.27;;;;;;;;;;4943793;28;20250;-46
2022/11/10 12:58:04;;;;;;;4.05;1.65;;;;;;;;;;4941893;29;20614;-48
2022/11/10 13:00:36;;;;;;;1.30;1.17;;;;;;;;;;4939312;28;20044;-46
2022/11/10 13:03:02;;;;;;;4.00;1.80;;;;;;;;;;4945303;29;20043;-46
2022/11/10 13:05:39;;;;;;;1.73;1.02;;;;;;;;;;4943833;28;20039;-46
2022/11/10 13:08:29;;;;;;;1.35;1.23;;;;;;;;;;4939658;28;20039;-45
2022/11/10 13:11:01;;;;;;;1.80;1.13;;;;;;;;;;4940245;28;20126;-45
2022/11/10 13:13:28;;;;;;;1.20;1.10;;;;;;;;;;4943048;28;20691;-46
2022/11/10 13:15:57;;;;;;;1.05;1.02;;;;;;;;;;4938812;29;20548;-46
2022/11/10 13:18:48;;;;;;;4.95;1.95;;;;;;;;;;4938736;28;20067;-46
2022/11/10 13:21:13;;;;;;;2.50;1.25;;;;;;;;;;4930374;28;20043;-45
2022/11/10 13:23:41;;;;;;;1.63;1.30;;;;;;;;;;4937811;28;20481;-46
2022/11/10 13:26:31;;;;;;;3.13;1.45;;;;;;;;;;4937123;29;20078;-46
2022/11/10 13:28:58;;;;;;;1.33;1.15;;;;;;;;;;4964395;28;20073;-46
2022/11/10 13:31:27;;;;;;;2.03;1.30;;;;;;;;;;5001687;28;20026;-45
2022/11/10 13:34:01;;;;;;;4.40;1.60;;;;;;;;;;5015009;28;20045;-45
2022/11/10 13:36:41;;;;;;;2.90;1.20;;;;;;;;;;5011117;28;20026;-46
2022/11/10 13:39:19;;;;;;;4.43;1.45;;;;;;;;;;5012991;28;20128;-47
2022/11/10 13:41:46;;;;;;;3.70;1.10;;;;;;;;;;5017019;28;20038;-46
2022/11/10 13:44:31;;;;;;;3.08;1.40;;;;;;;;;;5006786;28;20037;-45
2022/11/10 13:47:08;;;;;;;2.20;1.55;;;;;;;;;;5012796;28;20033;-45
2022/11/10 13:49:59;;;;;;;2.42;1.88;;;;;;;;;;4997889;28;20042;-47
2022/11/10 13:52:55;;;;;;;3.03;2.15;;;;;;;;;;4992990;28;20022;-46
2022/11/10 13:55:58;;;;;;;4.32;3.70;;;;;;;;;;5009799;28;20045;-46
2022/11/10 13:58:30;;;;;;;3.67;1.33;;;;;;;;;;5010786;28;20042;-46
2022/11/10 14:01:17;;;;;;;2.28;1.63;;;;;;;;;;5002312;28;20490;-46
2022/11/10 14:03:46;;;;;;;1.35;1.25;;;;;;;;;;5004192;28;20088;-46
2022/11/10 14:06:17;;;;;;;5.55;2.17;;;;;;;;;;5005544;28;20037;-46
2022/11/10 14:08:52;;;;;;;2.70;1.27;;;;;;;;;;5013620;28;20046;-46
2022/11/10 14:11:26;;;;;;;5.53;1.40;;;;;;;;;;5002178;28;20559;-47
2022/11/10 14:13:58;;;;;;;1.67;1.05;;;;;;;;;;5006933;28;20068;-46
2022/11/10 14:16:27;;;;;;;2.85;1.40;;;;;;;;;;5016639;28;20017;-46
2022/11/10 14:19:04;;;;;;;2.88;1.40;;;;;;;;;;5006462;28;20085;-46
2022/11/10 14:21:41;;;;;;;1.98;1.30;;;;;;;;;;5010400;28;20112;-46
2022/11/10 14:24:23;;;;;;;2.38;1.30;;;;;;;;;;5011076;28;20068;-45
2022/11/10 14:26:48;;;;;;;;;;;;;;;;;;5011111;28;20429;-46
2022/11/10 14:29:31;;;;;;;3.20;1.40;;;;;;;;;;5007199;28;19921;-45
2022/11/10 14:31:59;;;;;;;3.53;1.58;;;;;;;;;;5004161;28;20037;-50
2022/11/10 14:34:25;;;;;;;2.60;1.52;;;;;;;;;;5008895;28;20045;-45
2022/11/10 14:36:56;;;;;;;3.45;1.30;;;;;;;;;;5014005;28;20026;-46
2022/11/10 14:39:32;;;;;;;2.25;1.20;;;;;;;;;;5010288;28;20508;-47
2022/11/10 14:42:00;;;;;;;4.75;1.50;;;;;;;;;;5009764;28;20034;-47
2022/11/10 14:44:28;;;;;;;1.65;1.40;;;;;;;;;;5014415;28;20041;-46
2022/11/10 14:46:55;;;;;;;2.67;1.20;;;;;;;;;;5015686;28;20457;-45
2022/11/10 14:49:24;;;;;;;3.08;1.48;;;;;;;;;;5014459;28;20037;-46
2022/11/10 14:51:53;;;;;;;1.85;1.50;;;;;;;;;;5011107;28;20037;-47
2022/11/10 14:54:25;;;;;;;2.15;1.48;;;;;;;;;;5014487;28;20095;-46
2022/11/10 14:56:53;;;;;;;5.28;1.95;;;;;;;;;;5005488;28;20029;-45
2022/11/10 14:59:20;;;;;;;3.95;2.03;;;;;;;;;;5012449;28;20034;-46
2022/11/10 15:01:58;;;;;;;4.55;1.48;;;;;;;;;;5013272;28;20121;-46
2022/11/10 15:04:35;;;;;;;2.08;1.40;;;;;;;;;;5010432;28;20046;-47
2022/11/10 15:07:00;;;;;;;2.65;1.70;;;;;;;;;;5013175;28;20115;-46
2022/11/10 15:09:28;;;;;;;4.18;1.50;;;;;;;;;;5013300;28;20482;-47
2022/11/10 15:12:25;;;;;;;1.88;1.65;;;;;;;;;;5005993;28;20101;-45
2022/11/10 15:14:59;;;;;;;3.45;1.50;;;;;;;;;;5013743;28;20525;-45
2022/11/10 15:17:49;;;;;;;4.10;1.30;;;;;;;;;;5012858;28;20033;-46